Time;durP1;ratioP1;P1;durP2;ratioP2;P2;SDS_P1;SDS_P2;PMS_P1;PMS_P2;Temp;Humidity;BMP_temperature;BMP_pressure;BME280_temperature;BME280_humidity;BME280_pressure;Samples;Min_cycle;Max_cycle;Signal;HPM_P1;HPM_P2
2023/06/11 00:02:21;;;;;;;10.45;9.45;;;;;;;;;;5136533;27;20054;-49
2023/06/11 00:04:49;;;;;;;9.95;9.05;;;;;;;;;;5136422;27;20047;-53
2023/06/11 00:07:17;;;;;;;10.85;9.85;;;;;;;;;;5136447;27;20059;-49
2023/06/11 00:09:44;;;;;;;9.75;8.95;;;;;;;;;;5135414;27;20407;-48
2023/06/11 00:12:11;;;;;;;11.23;9.98;;;;;;;;;;5136027;27;20055;-50
2023/06/11 00:14:38;;;;;;;11.25;10.25;;;;;;;;;;5136089;27;20047;-50
2023/06/11 00:17:05;;;;;;;11.02;10.00;;;;;;;;;;5136216;27;20050;-52
2023/06/11 00:19:32;;;;;;;11.25;10.20;;;;;;;;;;5136175;27;20055;-49
2023/06/11 00:22:02;;;;;;;10.60;9.60;;;;;;;;;;5136220;27;20483;-48
2023/06/11 00:24:31;;;;;;;10.90;9.50;;;;;;;;;;5136189;27;20054;-49
2023/06/11 00:26:59;;;;;;;10.50;9.60;;;;;;;;;;5136223;27;20051;-49
2023/06/11 00:29:28;;;;;;;10.27;9.20;;;;;;;;;;5135757;27;20988;-49
2023/06/11 00:31:55;;;;;;;10.70;9.70;;;;;;;;;;5136537;27;20055;-49
2023/06/11 00:34:22;;;;;;;10.15;9.15;;;;;;;;;;5133438;27;20484;-49
2023/06/11 00:36:49;;;;;;;11.85;10.63;;;;;;;;;;5119574;27;20051;-52
2023/06/11 00:39:16;;;;;;;10.90;9.85;;;;;;;;;;5115380;28;20059;-51
2023/06/11 00:41:48;;;;;;;10.30;9.30;;;;;;;;;;5115193;28;20052;-51
2023/06/11 00:44:17;;;;;;;9.43;8.48;;;;;;;;;;5115241;28;20137;-49
2023/06/11 00:46:45;;;;;;;10.25;9.25;;;;;;;;;;5115219;28;20052;-50
2023/06/11 00:49:12;;;;;;;11.10;10.00;;;;;;;;;;5115382;28;20077;-51
2023/06/11 00:51:39;;;;;;;9.98;8.98;;;;;;;;;;5114741;28;20400;-49
2023/06/11 00:54:06;;;;;;;10.25;8.85;;;;;;;;;;5114906;28;20129;-50
2023/06/11 00:56:33;;;;;;;10.85;9.85;;;;;;;;;;5114378;28;20056;-50
2023/06/11 00:59:06;;;;;;;11.05;9.98;;;;;;;;;;5114840;28;20051;-52
2023/06/11 01:01:35;;;;;;;11.57;10.48;;;;;;;;;;5122683;27;20054;-51
2023/06/11 01:04:05;;;;;;;10.57;9.57;;;;;;;;;;5135688;27;20051;-50
2023/06/11 01:06:33;;;;;;;9.77;8.90;;;;;;;;;;5135123;27;20058;-50
2023/06/11 01:09:01;;;;;;;10.10;9.10;;;;;;;;;;5134038;27;20051;-49
2023/06/11 01:11:32;;;;;;;10.40;8.57;;;;;;;;;;5135343;27;20046;-49
2023/06/11 01:14:00;;;;;;;9.75;8.85;;;;;;;;;;5135034;27;20047;-49
2023/06/11 01:16:34;;;;;;;9.70;8.80;;;;;;;;;;5135143;27;20058;-51
2023/06/11 01:19:04;;;;;;;10.40;9.40;;;;;;;;;;5135116;27;20058;-48
2023/06/11 01:21:34;;;;;;;10.80;9.73;;;;;;;;;;5133597;27;20058;-48
2023/06/11 01:24:06;;;;;;;11.70;10.50;;;;;;;;;;5134521;27;20054;-48
2023/06/11 01:26:42;;;;;;;9.00;8.10;;;;;;;;;;5134715;27;20468;-50
2023/06/11 01:29:10;;;;;;;11.27;10.18;;;;;;;;;;5134813;27;20058;-49
2023/06/11 01:31:40;;;;;;;10.80;9.80;;;;;;;;;;5134939;27;20051;-52
2023/06/11 01:34:08;;;;;;;10.10;9.10;;;;;;;;;;5134598;27;20051;-48
2023/06/11 01:36:36;;;;;;;9.70;8.70;;;;;;;;;;5134668;27;20145;-50
2023/06/11 01:39:04;;;;;;;9.68;8.68;;;;;;;;;;5134199;27;20051;-48
2023/06/11 01:41:31;;;;;;;10.05;9.15;;;;;;;;;;5134718;27;20479;-48
2023/06/11 01:43:58;;;;;;;10.02;9.13;;;;;;;;;;5134186;27;20054;-48
2023/06/11 01:46:26;;;;;;;9.57;8.50;;;;;;;;;;5134281;27;20047;-51
2023/06/11 01:48:53;;;;;;;10.15;9.32;;;;;;;;;;5134673;27;20058;-49
2023/06/11 01:51:21;;;;;;;10.40;9.45;;;;;;;;;;5134350;27;20063;-52
2023/06/11 01:53:48;;;;;;;9.18;8.27;;;;;;;;;;5134368;27;20047;-49
2023/06/11 01:56:15;;;;;;;10.93;9.70;;;;;;;;;;5133670;27;20055;-51
2023/06/11 01:58:45;;;;;;;10.60;9.70;;;;;;;;;;5134310;27;20051;-48
2023/06/11 02:01:12;;;;;;;9.77;8.80;;;;;;;;;;5134132;27;20050;-48
2023/06/11 02:03:41;;;;;;;11.90;9.85;;;;;;;;;;5134287;27;20058;-50
2023/06/11 02:06:08;;;;;;;10.40;9.40;;;;;;;;;;5133888;27;20059;-49
2023/06/11 02:08:35;;;;;;;10.90;9.75;;;;;;;;;;5133770;27;20050;-48
2023/06/11 02:11:03;;;;;;;12.25;11.07;;;;;;;;;;5134138;27;20062;-52
2023/06/11 02:13:31;;;;;;;11.52;9.70;;;;;;;;;;5134202;27;20054;-48
2023/06/11 02:15:58;;;;;;;10.77;9.68;;;;;;;;;;5133481;27;20058;-49
2023/06/11 02:18:25;;;;;;;12.18;10.88;;;;;;;;;;5133976;27;20054;-50
2023/06/11 02:20:53;;;;;;;12.45;11.15;;;;;;;;;;5133476;27;20062;-49
2023/06/11 02:23:20;;;;;;;13.73;10.60;;;;;;;;;;5133833;27;20051;-51
2023/06/11 02:25:47;;;;;;;12.70;11.52;;;;;;;;;;5133391;27;20085;-51
2023/06/11 02:28:14;;;;;;;11.18;10.07;;;;;;;;;;5133261;27;20058;-51
2023/06/11 02:30:41;;;;;;;10.57;9.30;;;;;;;;;;5133194;27;20419;-51
2023/06/11 02:33:07;;;;;;;11.38;10.27;;;;;;;;;;5133477;27;20059;-52
2023/06/11 02:35:35;;;;;;;11.23;10.13;;;;;;;;;;5133281;27;20518;-52
2023/06/11 02:38:03;;;;;;;11.77;10.50;;;;;;;;;;5133480;27;20051;-52
2023/06/11 02:40:30;;;;;;;10.65;9.65;;;;;;;;;;5133324;27;20055;-48
2023/06/11 02:42:57;;;;;;;11.80;9.52;;;;;;;;;;5133365;27;20059;-48
2023/06/11 02:45:24;;;;;;;12.18;10.45;;;;;;;;;;5133175;27;20039;-51
2023/06/11 02:47:51;;;;;;;10.13;9.23;;;;;;;;;;5133734;27;20051;-50
2023/06/11 02:50:17;;;;;;;10.63;9.60;;;;;;;;;;5133772;27;20050;-52
2023/06/11 02:52:45;;;;;;;11.05;9.95;;;;;;;;;;5133869;27;20051;-48
2023/06/11 02:55:19;;;;;;;10.98;9.13;;;;;;;;;;5133388;27;20375;-51
2023/06/11 02:57:46;;;;;;;10.18;9.18;;;;;;;;;;5133004;28;20055;-48
2023/06/11 03:00:13;;;;;;;12.02;10.93;;;;;;;;;;5133664;28;20062;-48
2023/06/11 03:02:43;;;;;;;12.38;11.07;;;;;;;;;;5133423;28;20260;-51
2023/06/11 03:05:09;;;;;;;11.57;10.30;;;;;;;;;;5133086;28;20459;-49
2023/06/11 03:07:36;;;;;;;11.20;10.20;;;;;;;;;;5133284;28;20051;-49
2023/06/11 03:10:03;;;;;;;11.88;10.65;;;;;;;;;;5133290;28;20055;-50
2023/06/11 03:12:32;;;;;;;10.90;9.90;;;;;;;;;;5133245;28;20509;-48
2023/06/11 03:14:58;;;;;;;10.73;9.63;;;;;;;;;;5132798;28;20385;-51
2023/06/11 03:17:25;;;;;;;11.77;10.45;;;;;;;;;;5133319;28;20051;-51
2023/06/11 03:19:52;;;;;;;11.70;10.13;;;;;;;;;;5132610;28;20051;-50
2023/06/11 03:22:19;;;;;;;11.15;10.15;;;;;;;;;;5132978;28;20055;-48
2023/06/11 03:24:46;;;;;;;12.10;10.95;;;;;;;;;;5133476;28;20385;-49
2023/06/11 03:27:13;;;;;;;10.65;9.15;;;;;;;;;;5132887;28;20058;-49
2023/06/11 03:29:44;;;;;;;10.40;9.40;;;;;;;;;;5133216;28;20480;-51
2023/06/11 03:32:11;;;;;;;10.85;9.85;;;;;;;;;;5133340;28;20392;-47
2023/06/11 03:34:38;;;;;;;10.90;9.80;;;;;;;;;;5133038;28;20062;-49
2023/06/11 03:37:06;;;;;;;12.10;11.10;;;;;;;;;;5132950;28;20058;-48
2023/06/11 03:39:33;;;;;;;12.65;11.05;;;;;;;;;;5132561;28;20050;-50
2023/06/11 03:42:00;;;;;;;11.23;10.10;;;;;;;;;;5132910;28;20051;-49
2023/06/11 03:44:27;;;;;;;11.75;10.55;;;;;;;;;;5134635;27;20503;-48
2023/06/11 03:46:55;;;;;;;11.50;10.02;;;;;;;;;;5136653;27;20043;-49
2023/06/11 03:49:22;;;;;;;11.55;10.45;;;;;;;;;;5136954;27;20129;-49
2023/06/11 03:51:49;;;;;;;12.02;10.77;;;;;;;;;;5136785;27;20476;-51
2023/06/11 03:54:16;;;;;;;11.68;10.02;;;;;;;;;;5136569;27;20403;-50
2023/06/11 03:56:43;;;;;;;10.00;8.90;;;;;;;;;;5136358;27;20054;-52
2023/06/11 03:59:10;;;;;;;10.82;9.30;;;;;;;;;;5136483;27;20051;-48
2023/06/11 04:01:36;;;;;;;11.55;10.35;;;;;;;;;;5136338;27;20058;-52
2023/06/11 04:04:05;;;;;;;11.27;10.13;;;;;;;;;;5136799;27;20051;-51
2023/06/11 04:06:36;;;;;;;11.35;10.30;;;;;;;;;;5136007;27;20057;-52
2023/06/11 04:09:03;;;;;;;10.25;9.30;;;;;;;;;;5136600;27;20058;-51
2023/06/11 04:11:30;;;;;;;11.80;10.25;;;;;;;;;;5136310;27;20399;-53
2023/06/11 04:13:57;;;;;;;10.68;9.57;;;;;;;;;;5135828;27;20051;-50
2023/06/11 04:16:23;;;;;;;10.35;9.35;;;;;;;;;;5136171;27;20452;-48
2023/06/11 04:18:50;;;;;;;11.32;9.90;;;;;;;;;;5136393;27;20054;-52
2023/06/11 04:21:19;;;;;;;10.35;8.82;;;;;;;;;;5136324;27;20062;-49
2023/06/11 04:23:46;;;;;;;11.13;10.02;;;;;;;;;;5135946;27;20051;-52
2023/06/11 04:26:15;;;;;;;11.43;10.32;;;;;;;;;;5135869;27;20047;-49
2023/06/11 04:28:44;;;;;;;12.30;10.23;;;;;;;;;;5136210;27;20055;-49
2023/06/11 04:31:11;;;;;;;12.18;11.02;;;;;;;;;;5136037;27;20388;-50
2023/06/11 04:33:38;;;;;;;11.20;10.18;;;;;;;;;;5136080;27;20218;-52
2023/06/11 04:36:07;;;;;;;11.57;10.38;;;;;;;;;;5136025;27;20055;-48
2023/06/11 04:38:44;;;;;;;11.98;10.88;;;;;;;;;;5135608;27;20051;-50
2023/06/11 04:41:11;;;;;;;12.13;10.88;;;;;;;;;;5135598;27;20062;-53
2023/06/11 04:43:39;;;;;;;10.70;9.70;;;;;;;;;;5135878;27;20446;-50
2023/06/11 04:46:06;;;;;;;10.68;9.60;;;;;;;;;;5135732;27;20404;-49
2023/06/11 04:48:34;;;;;;;10.88;9.77;;;;;;;;;;5135721;27;20051;-52
2023/06/11 04:51:01;;;;;;;10.90;9.80;;;;;;;;;;5135466;27;20047;-51
2023/06/11 04:53:29;;;;;;;11.30;10.30;;;;;;;;;;5135131;27;20069;-52
2023/06/11 04:55:59;;;;;;;9.38;8.52;;;;;;;;;;5134939;27;20361;-52
2023/06/11 04:58:25;;;;;;;;;;;;;;;;;;5136051;27;20047;-51
2023/06/11 05:00:53;;;;;;;10.65;9.55;;;;;;;;;;5135143;27;19942;-49
2023/06/11 05:03:21;;;;;;;9.95;9.05;;;;;;;;;;5135337;27;20051;-52
2023/06/11 05:05:50;;;;;;;10.75;9.75;;;;;;;;;;5134998;27;20061;-49
2023/06/11 05:08:17;;;;;;;11.45;10.25;;;;;;;;;;5134999;27;20054;-50
2023/06/11 05:10:44;;;;;;;11.00;9.90;;;;;;;;;;5135033;27;20058;-51
2023/06/11 05:13:12;;;;;;;10.55;9.55;;;;;;;;;;5134765;27;20484;-50
2023/06/11 05:15:39;;;;;;;11.60;10.60;;;;;;;;;;5134800;27;20062;-49
2023/06/11 05:18:06;;;;;;;11.70;10.60;;;;;;;;;;5134627;27;20047;-52
2023/06/11 05:20:33;;;;;;;11.38;10.27;;;;;;;;;;5134618;27;20047;-52
2023/06/11 05:23:02;;;;;;;10.95;9.88;;;;;;;;;;5134442;27;20055;-49
2023/06/11 05:25:29;;;;;;;10.30;8.75;;;;;;;;;;5134542;27;20055;-50
2023/06/11 05:27:58;;;;;;;10.40;9.23;;;;;;;;;;5135005;27;20054;-60
2023/06/11 05:30:26;;;;;;;9.27;8.48;;;;;;;;;;5134727;27;20399;-60
2023/06/11 05:32:55;;;;;;;11.70;10.48;;;;;;;;;;5134858;27;20051;-59
2023/06/11 05:35:22;;;;;;;10.07;8.97;;;;;;;;;;5135121;27;20054;-51
2023/06/11 05:37:48;;;;;;;10.73;9.73;;;;;;;;;;5134625;27;20054;-59
2023/06/11 05:40:15;;;;;;;10.45;9.27;;;;;;;;;;5134564;27;20061;-59
2023/06/11 05:42:42;;;;;;;10.63;9.63;;;;;;;;;;5134518;27;20055;-59
2023/06/11 05:45:09;;;;;;;10.27;9.27;;;;;;;;;;5134131;27;20058;-58
2023/06/11 05:47:37;;;;;;;10.20;9.30;;;;;;;;;;5134038;27;20058;-60
2023/06/11 05:50:04;;;;;;;9.27;8.35;;;;;;;;;;5134254;27;20054;-59
2023/06/11 05:52:31;;;;;;;12.57;8.93;;;;;;;;;;5134006;27;20058;-59
2023/06/11 05:54:58;;;;;;;8.98;8.18;;;;;;;;;;5134291;27;20448;-60
2023/06/11 05:57:25;;;;;;;9.60;8.65;;;;;;;;;;5133685;27;20059;-59
2023/06/11 05:59:52;;;;;;;9.45;8.25;;;;;;;;;;5134408;27;20419;-60
2023/06/11 06:02:19;;;;;;;8.85;7.95;;;;;;;;;;5134097;27;20054;-60
2023/06/11 06:04:48;;;;;;;8.30;7.55;;;;;;;;;;5133540;27;20051;-60
2023/06/11 06:07:15;;;;;;;8.30;7.45;;;;;;;;;;5133452;27;20058;-60
2023/06/11 06:09:42;;;;;;;8.55;7.75;;;;;;;;;;5134080;27;20050;-51
2023/06/11 06:12:10;;;;;;;9.95;7.45;;;;;;;;;;5133649;27;20062;-60
2023/06/11 06:14:38;;;;;;;9.38;8.55;;;;;;;;;;5134984;27;20460;-57
2023/06/11 06:17:05;;;;;;;8.52;7.63;;;;;;;;;;5139696;27;20070;-60
2023/06/11 06:19:32;;;;;;;9.60;8.45;;;;;;;;;;5134178;27;20058;-61
2023/06/11 06:22:00;;;;;;;10.05;8.23;;;;;;;;;;5133432;27;20051;-60
2023/06/11 06:24:27;;;;;;;8.15;7.35;;;;;;;;;;5134104;27;20058;-49
2023/06/11 06:26:56;;;;;;;8.60;7.80;;;;;;;;;;5133442;27;20051;-50
2023/06/11 06:29:23;;;;;;;8.13;7.43;;;;;;;;;;5133812;27;20062;-47
2023/06/11 06:31:50;;;;;;;8.25;7.45;;;;;;;;;;5133670;27;20407;-51
2023/06/11 06:34:16;;;;;;;8.50;7.70;;;;;;;;;;5133621;27;20047;-51
2023/06/11 06:36:43;;;;;;;8.05;7.32;;;;;;;;;;5133866;27;20067;-59
2023/06/11 06:39:12;;;;;;;7.57;6.90;;;;;;;;;;5133602;27;20137;-59
2023/06/11 06:41:39;;;;;;;7.40;6.70;;;;;;;;;;5133018;27;20058;-59
2023/06/11 06:44:05;;;;;;;7.07;6.30;;;;;;;;;;5133050;27;20058;-59
2023/06/11 06:46:32;;;;;;;7.40;6.70;;;;;;;;;;5133390;27;20518;-59
2023/06/11 06:48:59;;;;;;;7.65;6.85;;;;;;;;;;5132766;27;20051;-59
2023/06/11 06:51:26;;;;;;;6.93;6.18;;;;;;;;;;5133286;27;20062;-60
2023/06/11 06:53:53;;;;;;;6.88;6.18;;;;;;;;;;5132987;27;20066;-60
2023/06/11 06:56:21;;;;;;;7.45;6.72;;;;;;;;;;5132741;27;20055;-59
2023/06/11 06:58:48;;;;;;;6.65;6.05;;;;;;;;;;5133170;28;20496;-60
2023/06/11 07:01:15;;;;;;;6.63;5.70;;;;;;;;;;5132815;28;20054;-59
2023/06/11 07:03:42;;;;;;;7.15;6.35;;;;;;;;;;5133100;28;20506;-60
2023/06/11 07:06:09;;;;;;;6.82;5.22;;;;;;;;;;5133313;28;20047;-59
2023/06/11 07:08:36;;;;;;;7.55;6.10;;;;;;;;;;5133262;28;20047;-59
2023/06/11 07:11:02;;;;;;;6.35;5.40;;;;;;;;;;5132873;28;20411;-59
2023/06/11 07:13:31;;;;;;;7.28;5.68;;;;;;;;;;5133159;28;20058;-59
2023/06/11 07:15:57;;;;;;;5.97;5.47;;;;;;;;;;5133732;28;21057;-59
2023/06/11 07:18:26;;;;;;;6.15;5.55;;;;;;;;;;5133268;27;20054;-52
2023/06/11 07:20:53;;;;;;;6.72;5.55;;;;;;;;;;5136954;27;20063;-50
2023/06/11 07:23:20;;;;;;;6.75;5.80;;;;;;;;;;5137106;27;20069;-50
2023/06/11 07:25:48;;;;;;;6.07;5.47;;;;;;;;;;5137020;27;20047;-52
2023/06/11 07:28:15;;;;;;;5.32;4.82;;;;;;;;;;5137164;27;20050;-53
2023/06/11 07:30:44;;;;;;;6.82;5.38;;;;;;;;;;5136916;27;20106;-52
2023/06/11 07:33:11;;;;;;;5.13;4.63;;;;;;;;;;5137293;27;20062;-52
2023/06/11 07:35:38;;;;;;;5.90;5.30;;;;;;;;;;5137010;27;20062;-50
2023/06/11 07:38:04;;;;;;;6.35;5.55;;;;;;;;;;5136672;27;20054;-49
2023/06/11 07:40:31;;;;;;;6.97;5.22;;;;;;;;;;5136897;27;20047;-52
2023/06/11 07:42:58;;;;;;;6.90;5.72;;;;;;;;;;5137129;27;20444;-52
2023/06/11 07:45:25;;;;;;;6.57;5.68;;;;;;;;;;5137303;27;20055;-51
2023/06/11 07:47:55;;;;;;;6.20;4.70;;;;;;;;;;5137081;27;20047;-51
2023/06/11 07:50:22;;;;;;;6.28;5.43;;;;;;;;;;5136781;27;20058;-49
2023/06/11 07:52:49;;;;;;;7.22;4.80;;;;;;;;;;5136993;27;20047;-53
2023/06/11 07:55:17;;;;;;;5.75;5.18;;;;;;;;;;5137219;27;20055;-50
2023/06/11 07:57:44;;;;;;;5.20;4.70;;;;;;;;;;5135210;27;20058;-59
2023/06/11 08:00:12;;;;;;;7.85;4.90;;;;;;;;;;5137167;27;20500;-60
2023/06/11 08:02:43;;;;;;;6.13;4.70;;;;;;;;;;5136455;27;20058;-59
2023/06/11 08:05:17;;;;;;;5.45;4.95;;;;;;;;;;5136721;27;20476;-60
2023/06/11 08:07:44;;;;;;;5.38;4.88;;;;;;;;;;5136697;27;20058;-59
2023/06/11 08:10:11;;;;;;;5.57;4.32;;;;;;;;;;5136259;27;20055;-59
2023/06/11 08:12:38;;;;;;;7.10;4.60;;;;;;;;;;5136769;27;20051;-59
2023/06/11 08:15:08;;;;;;;6.93;3.88;;;;;;;;;;5141425;27;20070;-51
2023/06/11 08:17:38;;;;;;;4.60;4.20;;;;;;;;;;5136434;27;20518;-50
2023/06/11 08:20:07;;;;;;;5.50;4.07;;;;;;;;;;5136296;27;20510;-53
2023/06/11 08:22:36;;;;;;;5.22;4.50;;;;;;;;;;5136288;27;20051;-49
2023/06/11 08:25:02;;;;;;;;;;;;;;;;;;5136639;27;20043;-60
2023/06/11 08:27:29;;;;;;;4.95;4.18;;;;;;;;;;5135252;27;19919;-60
2023/06/11 08:29:56;;;;;;;5.18;4.40;;;;;;;;;;5136302;27;20047;-60
2023/06/11 08:32:23;;;;;;;4.85;4.10;;;;;;;;;;5136126;27;20047;-59
2023/06/11 08:34:50;;;;;;;4.32;3.92;;;;;;;;;;5136265;27;20488;-60
2023/06/11 08:37:17;;;;;;;4.97;4.00;;;;;;;;;;5135908;27;20055;-59
2023/06/11 08:39:45;;;;;;;4.88;4.07;;;;;;;;;;5136048;27;20055;-59
2023/06/11 08:42:15;;;;;;;5.10;4.15;;;;;;;;;;5136067;27;20396;-61
2023/06/11 08:44:42;;;;;;;4.68;4.28;;;;;;;;;;5135733;27;20051;-59
2023/06/11 08:47:12;;;;;;;4.97;4.25;;;;;;;;;;5136043;27;20047;-59
2023/06/11 08:49:40;;;;;;;4.07;3.60;;;;;;;;;;5135819;27;20047;-53
2023/06/11 08:52:08;;;;;;;4.97;4.50;;;;;;;;;;5135784;27;20062;-53
2023/06/11 08:54:35;;;;;;;3.97;3.67;;;;;;;;;;5134660;27;20503;-60
2023/06/11 08:57:04;;;;;;;4.50;4.10;;;;;;;;;;5135269;27;20423;-60
2023/06/11 08:59:31;;;;;;;4.50;4.10;;;;;;;;;;5135239;27;20051;-59
2023/06/11 09:01:58;;;;;;;5.20;4.10;;;;;;;;;;5135534;27;20472;-60
2023/06/11 09:04:25;;;;;;;5.97;4.57;;;;;;;;;;5135229;27;20055;-59
2023/06/11 09:06:52;;;;;;;4.38;3.83;;;;;;;;;;5135318;27;20353;-60
2023/06/11 09:09:19;;;;;;;4.60;4.17;;;;;;;;;;5135506;27;20054;-59
2023/06/11 09:11:46;;;;;;;5.57;4.13;;;;;;;;;;5135052;27;20047;-59
2023/06/11 09:14:14;;;;;;;3.95;3.60;;;;;;;;;;5135434;27;20055;-60
2023/06/11 09:16:43;;;;;;;4.60;3.70;;;;;;;;;;5134841;27;20059;-60
2023/06/11 09:19:11;;;;;;;5.82;3.92;;;;;;;;;;5134719;27;20408;-60
2023/06/11 09:21:38;;;;;;;4.57;4.18;;;;;;;;;;5135165;27;20047;-59
2023/06/11 09:24:08;;;;;;;5.18;3.90;;;;;;;;;;5135248;27;20058;-60
2023/06/11 09:26:35;;;;;;;5.30;3.83;;;;;;;;;;5135039;27;20062;-60
2023/06/11 09:29:02;;;;;;;4.65;3.53;;;;;;;;;;5135059;27;20058;-59
2023/06/11 09:31:31;;;;;;;4.20;3.80;;;;;;;;;;5135071;27;20399;-60
2023/06/11 09:34:01;;;;;;;5.38;4.32;;;;;;;;;;5135094;27;20055;-60
2023/06/11 09:36:28;;;;;;;5.40;4.20;;;;;;;;;;5134988;27;20051;-53
2023/06/11 09:38:55;;;;;;;5.07;4.28;;;;;;;;;;5134859;27;20051;-49
2023/06/11 09:41:22;;;;;;;4.85;3.85;;;;;;;;;;5135396;27;20417;-50
2023/06/11 09:43:58;;;;;;;4.47;3.87;;;;;;;;;;5135803;27;20062;-55
2023/06/11 09:46:25;;;;;;;5.28;3.80;;;;;;;;;;5138983;27;20051;-60
2023/06/11 09:48:53;;;;;;;5.47;4.22;;;;;;;;;;5134655;27;20047;-53
2023/06/11 09:51:23;;;;;;;4.60;3.92;;;;;;;;;;5134808;27;20069;-53
2023/06/11 09:53:51;;;;;;;4.38;3.97;;;;;;;;;;5134292;27;20058;-52
2023/06/11 09:56:22;;;;;;;4.32;3.92;;;;;;;;;;5133751;27;20059;-50
2023/06/11 09:58:49;;;;;;;4.80;4.10;;;;;;;;;;5134273;27;20058;-51
2023/06/11 10:01:16;;;;;;;4.95;3.85;;;;;;;;;;5134178;27;20047;-54
2023/06/11 10:03:43;;;;;;;5.53;4.15;;;;;;;;;;5134165;27;20058;-52
2023/06/11 10:06:13;;;;;;;5.80;4.20;;;;;;;;;;5134348;27;20058;-53
2023/06/11 10:08:40;;;;;;;4.85;4.32;;;;;;;;;;5133954;27;20815;-53
2023/06/11 10:11:08;;;;;;;6.25;4.20;;;;;;;;;;5133939;27;20055;-52
2023/06/11 10:13:35;;;;;;;5.40;4.47;;;;;;;;;;5133689;27;20047;-52
2023/06/11 10:16:03;;;;;;;5.63;3.83;;;;;;;;;;5133974;27;20411;-54
2023/06/11 10:18:30;;;;;;;4.03;3.67;;;;;;;;;;5134101;27;20058;-51
2023/06/11 10:20:59;;;;;;;6.15;4.25;;;;;;;;;;5133925;27;20055;-53
2023/06/11 10:23:37;;;;;;;6.63;3.75;;;;;;;;;;5133881;27;20050;-51
2023/06/11 10:26:05;;;;;;;4.95;3.90;;;;;;;;;;5133810;27;20058;-51
2023/06/11 10:28:36;;;;;;;4.72;3.95;;;;;;;;;;5133496;27;20058;-53
2023/06/11 10:31:03;;;;;;;4.38;3.80;;;;;;;;;;5134117;27;20062;-60
2023/06/11 10:33:37;;;;;;;5.15;4.30;;;;;;;;;;5133877;27;20051;-59
2023/06/11 10:36:04;;;;;;;4.10;3.70;;;;;;;;;;5133774;27;20058;-59
2023/06/11 10:38:31;;;;;;;4.43;3.70;;;;;;;;;;5133245;27;20391;-59
2023/06/11 10:41:04;;;;;;;4.45;3.88;;;;;;;;;;5133673;27;20528;-59
2023/06/11 10:43:32;;;;;;;4.45;4.05;;;;;;;;;;5133795;27;20058;-59
2023/06/11 10:46:02;;;;;;;4.80;4.05;;;;;;;;;;5133575;27;20047;-59
2023/06/11 10:48:29;;;;;;;4.22;3.88;;;;;;;;;;5133524;27;20078;-59
2023/06/11 10:50:59;;;;;;;5.15;4.07;;;;;;;;;;5133073;27;20499;-59
2023/06/11 10:53:36;;;;;;;4.80;4.30;;;;;;;;;;5133136;27;20396;-60
2023/06/11 10:56:04;;;;;;;4.28;3.88;;;;;;;;;;5133222;27;20058;-59
2023/06/11 10:58:31;;;;;;;6.28;4.28;;;;;;;;;;5133143;27;20062;-59
2023/06/11 11:00:59;;;;;;;3.87;3.57;;;;;;;;;;5132915;28;20048;-59
2023/06/11 11:03:26;;;;;;;3.90;3.40;;;;;;;;;;5133159;28;20491;-59
2023/06/11 11:05:53;;;;;;;5.10;4.30;;;;;;;;;;5132918;28;20059;-59
2023/06/11 11:08:20;;;;;;;5.78;3.92;;;;;;;;;;5133124;28;20050;-59
2023/06/11 11:10:47;;;;;;;5.70;4.03;;;;;;;;;;5133217;28;20502;-59
2023/06/11 11:13:17;;;;;;;4.60;3.83;;;;;;;;;;5133244;28;20434;-59
2023/06/11 11:15:44;;;;;;;4.93;3.83;;;;;;;;;;5133185;28;20069;-59
2023/06/11 11:18:11;;;;;;;4.40;4.00;;;;;;;;;;5133029;28;20055;-59
2023/06/11 11:20:37;;;;;;;6.43;4.03;;;;;;;;;;5133047;28;20055;-59
2023/06/11 11:23:06;;;;;;;4.73;4.33;;;;;;;;;;5133188;28;20491;-59
2023/06/11 11:25:33;;;;;;;4.93;4.20;;;;;;;;;;5132611;28;20047;-59
2023/06/11 11:28:00;;;;;;;4.75;4.07;;;;;;;;;;5133026;28;20051;-59
2023/06/11 11:30:29;;;;;;;4.40;4.00;;;;;;;;;;5132916;28;20066;-59
2023/06/11 11:32:56;;;;;;;5.57;4.18;;;;;;;;;;5133054;28;20051;-59
2023/06/11 11:35:25;;;;;;;4.68;4.18;;;;;;;;;;5132958;28;20403;-60
2023/06/11 11:37:52;;;;;;;4.68;4.10;;;;;;;;;;5132870;28;20055;-60
2023/06/11 11:40:19;;;;;;;6.85;3.90;;;;;;;;;;5132936;28;20043;-60
2023/06/11 11:42:48;;;;;;;;;;;;;;;;;;5133069;28;20058;-60
2023/06/11 11:45:15;;;;;;;4.10;3.70;;;;;;;;;;5132566;28;19926;-58
2023/06/11 11:47:44;;;;;;;6.13;4.20;;;;;;;;;;5132874;28;20054;-58
2023/06/11 11:50:18;;;;;;;6.70;4.20;;;;;;;;;;5132444;28;20480;-58
2023/06/11 11:52:46;;;;;;;4.30;4.00;;;;;;;;;;5132640;28;20051;-59
2023/06/11 11:55:12;;;;;;;4.75;3.97;;;;;;;;;;5132576;28;20480;-59
2023/06/11 12:00:24;;;;;;;6.28;4.50;;;;;;;;;;5123567;28;20055;-50
2023/06/11 12:02:53;;;;;;;4.90;4.40;;;;;;;;;;5132761;28;20047;-60
2023/06/11 12:05:19;;;;;;;5.85;3.90;;;;;;;;;;5133700;27;20066;-59
2023/06/11 12:07:52;;;;;;;4.75;3.88;;;;;;;;;;5137819;27;20055;-53
2023/06/11 12:10:19;;;;;;;5.60;4.22;;;;;;;;;;5137661;27;20047;-51
2023/06/11 12:12:46;;;;;;;5.07;4.53;;;;;;;;;;5138431;27;20495;-59
2023/06/11 12:15:13;;;;;;;4.43;4.03;;;;;;;;;;5136405;27;20051;-54
2023/06/11 12:17:40;;;;;;;4.70;4.20;;;;;;;;;;5135621;27;20063;-51
2023/06/11 12:20:09;;;;;;;4.07;3.67;;;;;;;;;;5135957;27;20051;-52
2023/06/11 12:22:36;;;;;;;4.30;3.90;;;;;;;;;;5136153;27;20051;-59
2023/06/11 12:25:03;;;;;;;4.15;3.70;;;;;;;;;;5136100;27;20476;-59
2023/06/11 12:27:30;;;;;;;5.15;4.13;;;;;;;;;;5136051;27;20051;-52
2023/06/11 12:29:57;;;;;;;5.93;4.20;;;;;;;;;;5135582;27;20399;-52
2023/06/11 12:32:25;;;;;;;4.72;3.90;;;;;;;;;;5135851;27;20061;-52
2023/06/11 12:34:51;;;;;;;4.78;4.25;;;;;;;;;;5135598;27;20051;-51
2023/06/11 12:37:20;;;;;;;4.88;4.20;;;;;;;;;;5135525;27;20051;-49
2023/06/11 12:39:46;;;;;;;5.10;3.80;;;;;;;;;;5136072;27;20058;-51
2023/06/11 12:42:14;;;;;;;4.23;3.73;;;;;;;;;;5135404;27;20062;-51
2023/06/11 12:44:41;;;;;;;4.65;4.20;;;;;;;;;;5137870;27;21023;-49
2023/06/11 12:47:08;;;;;;;5.88;4.30;;;;;;;;;;5135505;27;20058;-50
2023/06/11 12:49:35;;;;;;;5.10;4.60;;;;;;;;;;5135804;27;20059;-53
2023/06/11 12:52:02;;;;;;;5.10;4.10;;;;;;;;;;5135645;27;20051;-52
2023/06/11 12:54:30;;;;;;;4.72;4.32;;;;;;;;;;5135729;27;20047;-52
2023/06/11 12:56:57;;;;;;;4.55;3.97;;;;;;;;;;5135248;27;20082;-51
2023/06/11 12:59:26;;;;;;;5.32;4.18;;;;;;;;;;5135825;27;20445;-52
2023/06/11 13:01:53;;;;;;;5.13;4.50;;;;;;;;;;5134934;27;20047;-50
2023/06/11 13:04:20;;;;;;;6.05;4.68;;;;;;;;;;5135377;27;20051;-51
2023/06/11 13:06:46;;;;;;;5.13;3.70;;;;;;;;;;5135417;27;20051;-58
2023/06/11 13:09:13;;;;;;;5.25;4.75;;;;;;;;;;5135121;27;20055;-58
2023/06/11 13:11:41;;;;;;;5.22;4.30;;;;;;;;;;5135278;27;20047;-59
2023/06/11 13:14:08;;;;;;;;;;;;;;;;;;5135577;27;20411;-58
2023/06/11 13:16:35;;;;;;;6.25;4.40;;;;;;;;;;5134593;27;19923;-59
2023/06/11 13:19:02;;;;;;;6.10;4.50;;;;;;;;;;5134920;27;20051;-59
2023/06/11 13:21:29;;;;;;;5.00;4.60;;;;;;;;;;5134577;27;20051;-59
2023/06/11 13:23:56;;;;;;;5.53;4.53;;;;;;;;;;5134991;27;20051;-59
2023/06/11 13:26:23;;;;;;;5.80;4.35;;;;;;;;;;5134474;27;20063;-59
2023/06/11 13:28:51;;;;;;;4.65;3.97;;;;;;;;;;5134403;27;20047;-59
2023/06/11 13:31:18;;;;;;;;;;;;;;;;;;5135250;27;20047;-58
2023/06/11 13:33:45;;;;;;;5.45;4.90;;;;;;;;;;5134679;27;19931;-59
2023/06/11 13:36:12;;;;;;;6.18;4.60;;;;;;;;;;5134793;27;20058;-59
2023/06/11 13:38:40;;;;;;;5.03;4.15;;;;;;;;;;5134646;27;20058;-59
2023/06/11 13:41:07;;;;;;;4.97;4.47;;;;;;;;;;5134279;27;20043;-59
2023/06/11 13:43:34;;;;;;;5.18;4.60;;;;;;;;;;5134322;27;20078;-59
2023/06/11 13:46:03;;;;;;;6.65;5.15;;;;;;;;;;5134596;27;20054;-59
2023/06/11 13:48:29;;;;;;;5.43;4.53;;;;;;;;;;5134390;27;20051;-58
2023/06/11 13:50:56;;;;;;;4.93;4.40;;;;;;;;;;5134427;27;20395;-60
2023/06/11 13:53:23;;;;;;;5.35;4.43;;;;;;;;;;5134384;27;20051;-58
2023/06/11 13:55:50;;;;;;;4.65;4.07;;;;;;;;;;5134193;27;20061;-59
2023/06/11 13:58:17;;;;;;;4.68;4.28;;;;;;;;;;5133595;27;20062;-58
2023/06/11 14:00:44;;;;;;;5.32;4.40;;;;;;;;;;5133651;27;20051;-60
2023/06/11 14:03:12;;;;;;;4.85;4.32;;;;;;;;;;5134583;27;20464;-60
2023/06/11 14:05:40;;;;;;;4.82;4.38;;;;;;;;;;5134017;27;20407;-51
2023/06/11 14:08:08;;;;;;;6.85;4.47;;;;;;;;;;5134614;27;20051;-60
2023/06/11 14:10:35;;;;;;;6.05;4.88;;;;;;;;;;5133898;27;20054;-60
2023/06/11 14:13:01;;;;;;;6.82;4.82;;;;;;;;;;5133792;27;20058;-60
2023/06/11 14:15:29;;;;;;;4.82;4.38;;;;;;;;;;5133319;27;20047;-59
2023/06/11 14:17:56;;;;;;;4.97;4.45;;;;;;;;;;5133691;27;20047;-59
2023/06/11 14:20:24;;;;;;;4.70;4.25;;;;;;;;;;5133783;27;20051;-59
2023/06/11 14:22:51;;;;;;;5.65;4.65;;;;;;;;;;5133315;27;20062;-60
2023/06/11 14:25:18;;;;;;;6.40;4.63;;;;;;;;;;5133435;27;20055;-60
2023/06/11 14:27:44;;;;;;;4.53;3.85;;;;;;;;;;5132742;27;20051;-60
2023/06/11 14:30:12;;;;;;;5.05;4.28;;;;;;;;;;5133308;27;20047;-59
2023/06/11 14:32:39;;;;;;;5.20;4.40;;;;;;;;;;5133097;27;20043;-58
2023/06/11 14:35:06;;;;;;;5.05;4.55;;;;;;;;;;5133543;27;20058;-59
2023/06/11 14:37:34;;;;;;;4.97;4.40;;;;;;;;;;5133354;27;20063;-59
2023/06/11 14:40:01;;;;;;;6.35;4.40;;;;;;;;;;5133082;27;20072;-49
2023/06/11 14:42:28;;;;;;;6.72;4.40;;;;;;;;;;5133070;27;20058;-49
2023/06/11 14:44:55;;;;;;;4.65;4.25;;;;;;;;;;5133549;27;20385;-51